createdAt,value
2019-01-19T00:00:29.196Z,27.17
2019-01-19T00:03:22.238Z,27.03
2019-01-19T00:07:01.493Z,25.80
2019-01-19T00:10:44.390Z,28.10
2019-01-19T00:14:02.708Z,24.97
2019-01-19T00:17:47.982Z,23.53
2019-01-19T00:20:57.397Z,25.63
2019-01-19T00:24:33.543Z,25.87
2019-01-19T00:27:40.902Z,27.80
2019-01-19T00:31:12.982Z,29.23
2019-01-19T00:34:50.049Z,30.07
2019-01-19T00:40:51.952Z,25.43
2019-01-19T00:43:51.034Z,28.73
2019-01-19T00:47:22.416Z,24.47
2019-01-19T00:50:23.788Z,26.53
2019-01-19T00:53:17.800Z,29.17
2019-01-19T00:56:30.643Z,27.53
2019-01-19T00:59:08.975Z,25.37
2019-01-19T01:03:00.393Z,23.53
2019-01-19T01:06:37.867Z,19.63
2019-01-19T01:10:11.646Z,21.87
2019-01-19T01:13:30.314Z,20.07
2019-01-19T01:16:41.862Z,17.27
2019-01-19T01:20:11.293Z,16.10
2019-01-19T01:23:20.671Z,17.93
2019-01-19T01:26:39.821Z,14.00
2019-01-19T01:30:21.661Z,19.27
2019-01-19T01:37:31.641Z,16.00
2019-01-19T01:40:54.877Z,20.77
2019-01-19T01:44:18.656Z,15.90
2019-01-19T01:48:06.633Z,13.97
2019-01-19T01:51:53.497Z,19.32
2019-01-19T01:55:39.301Z,20.13
2019-01-19T01:59:06.498Z,14.43
2019-01-19T02:02:42.375Z,12.23
2019-01-19T02:06:21.907Z,15.90
2019-01-19T02:09:32.341Z,13.20
2019-01-19T02:12:52.106Z,14.80
2019-01-19T02:16:14.398Z,16.27
2019-01-19T02:19:22.600Z,20.00
2019-01-19T02:22:38.425Z,10.37
2019-01-19T02:26:04.119Z,12.53
2019-01-19T02:29:24.089Z,13.07
2019-01-19T02:33:03.850Z,16.75
2019-01-19T02:36:19.213Z,14.17
2019-01-19T02:39:41.373Z,14.40
2019-01-19T02:43:15.640Z,14.73
2019-01-19T02:46:52.780Z,19.57
2019-01-19T02:50:47.516Z,13.50
2019-01-19T02:53:51.823Z,15.50
2019-01-19T02:57:49.689Z,13.63
2019-01-19T03:01:05.827Z,12.30
2019-01-19T03:04:26.162Z,12.78
2019-01-19T03:07:49.812Z,11.57
2019-01-19T03:15:35.058Z,12.63
2019-01-19T03:19:04.859Z,10.57
2019-01-19T03:22:31.681Z,15.43
2019-01-19T03:25:33.036Z,14.37
2019-01-19T03:28:40.884Z,14.60
2019-01-19T03:32:19.716Z,15.90
2019-01-19T03:35:20.497Z,12.80
2019-01-19T03:38:56.488Z,17.30
2019-01-19T03:42:30.042Z,15.50
2019-01-19T03:46:08.334Z,11.67
2019-01-19T03:49:53.507Z,16.37
2019-01-19T03:53:24.657Z,16.00
2019-01-19T03:56:51.191Z,16.93
2019-01-19T04:00:02.879Z,13.40
2019-01-19T04:03:26.852Z,10.43
2019-01-19T04:06:43.649Z,14.10
2019-01-19T04:10:13.083Z,15.10
2019-01-19T04:14:08.460Z,16.17
2019-01-19T04:17:44.366Z,14.85
2019-01-19T04:20:44.765Z,19.10
2019-01-19T04:23:15.561Z,15.30
2019-01-19T04:26:00.892Z,14.63
2019-01-19T04:28:32.431Z,15.13
2019-01-19T04:31:03.333Z,13.70
2019-01-19T04:33:33.899Z,15.67
2019-01-19T04:36:04.518Z,11.43
2019-01-19T04:38:37.098Z,14.73
2019-01-19T04:41:07.615Z,13.97
2019-01-19T04:43:38.589Z,15.87
2019-01-19T04:46:09.562Z,17.03
2019-01-19T04:48:40.545Z,17.20
2019-01-19T04:51:11.162Z,15.03
2019-01-19T04:53:41.792Z,15.40
2019-01-19T04:56:12.384Z,21.77
2019-01-19T04:58:43.483Z,14.78
2019-01-19T05:01:14.391Z,13.33
2019-01-19T05:03:44.991Z,16.90
2019-01-19T05:06:15.572Z,13.00
2019-01-19T05:08:46.227Z,12.65
2019-01-19T05:11:16.770Z,12.27
2019-01-19T05:13:47.407Z,14.03
2019-01-19T05:16:18.001Z,14.87
2019-01-19T05:18:48.538Z,20.30
2019-01-19T05:21:19.735Z,14.03
2019-01-19T05:23:50.876Z,15.35
2019-01-19T05:26:21.393Z,16.55
2019-01-19T05:28:52.250Z,16.23
2019-01-19T05:31:22.815Z,17.70
2019-01-19T05:33:53.329Z,15.45
2019-01-19T05:36:23.849Z,14.17
2019-01-19T05:38:54.423Z,11.77
2019-01-19T05:41:25.475Z,12.37
2019-01-19T05:43:56.045Z,16.30
2019-01-19T05:46:27.253Z,15.77
2019-01-19T05:48:58.309Z,21.70
2019-01-19T05:51:28.829Z,14.03
2019-01-19T05:53:59.770Z,16.77
2019-01-19T05:56:30.586Z,15.43
2019-01-19T05:59:02.128Z,20.00
2019-01-19T06:01:33.757Z,14.18
2019-01-19T06:04:04.453Z,12.73
2019-01-19T06:06:37.347Z,20.43
2019-01-19T06:09:09.716Z,14.77
2019-01-19T06:11:40.382Z,17.43
2019-01-19T06:14:10.936Z,15.23
2019-01-19T06:16:41.847Z,18.70
2019-01-19T06:19:13.466Z,18.67
2019-01-19T06:22:09.499Z,17.17
2019-01-19T06:24:40.136Z,21.53
2019-01-19T06:27:10.737Z,16.00
2019-01-19T06:29:41.735Z,18.17
2019-01-19T06:32:12.372Z,21.70
2019-01-19T06:34:43.004Z,24.77
2019-01-19T06:37:13.669Z,16.13
2019-01-19T06:39:44.874Z,24.40
2019-01-19T06:42:15.625Z,25.00
2019-01-19T06:44:46.693Z,19.40
2019-01-19T06:47:17.400Z,18.70
2019-01-19T06:49:48.443Z,20.57
2019-01-19T06:52:19.491Z,18.45
2019-01-19T06:54:50.481Z,20.53
2019-01-19T06:57:21.205Z,19.40
2019-01-19T06:59:52.286Z,17.73
2019-01-19T07:02:23.451Z,20.37
2019-01-19T07:04:54.172Z,21.90
2019-01-19T07:07:24.821Z,22.32
2019-01-19T07:09:55.733Z,23.67
2019-01-19T07:12:26.648Z,24.57
2019-01-19T07:14:57.434Z,23.60
2019-01-19T07:17:28.110Z,19.07
2019-01-19T07:19:59.083Z,24.73
2019-01-19T07:22:31.091Z,19.42
2019-01-19T07:25:02.371Z,12.43
2019-01-19T07:27:33.436Z,17.47
2019-01-19T07:30:04.236Z,17.17
2019-01-19T07:32:35.232Z,19.47
2019-01-19T07:35:06.046Z,17.73
2019-01-19T07:37:36.807Z,20.23
2019-01-19T07:40:09.523Z,20.90
2019-01-19T07:42:41.262Z,21.95
2019-01-19T07:45:12.417Z,16.93
2019-01-19T07:47:43.498Z,20.68
2019-01-19T07:50:18.525Z,19.80
2019-01-19T07:52:49.283Z,18.35
2019-01-19T07:55:19.961Z,21.20
2019-01-19T07:57:50.916Z,23.60
2019-01-19T08:00:28.087Z,18.63
2019-01-19T08:02:59.085Z,24.17
2019-01-19T08:05:29.761Z,26.80
2019-01-19T08:08:00.825Z,22.40
2019-01-19T08:10:31.457Z,23.93
2019-01-19T08:13:02.471Z,28.97
2019-01-19T08:15:33.463Z,17.17
2019-01-19T08:18:04.103Z,21.62
2019-01-19T08:20:35.031Z,18.23
2019-01-19T08:23:06.028Z,24.65
2019-01-19T08:25:36.667Z,20.60
2019-01-19T08:28:07.315Z,17.57
2019-01-19T08:30:38.252Z,29.33
2019-01-19T08:33:09.264Z,33.70
2019-01-19T08:35:40.458Z,23.17
2019-01-19T08:38:12.153Z,32.90
2019-01-19T08:40:43.308Z,27.27
2019-01-19T08:43:23.167Z,25.57
2019-01-19T08:45:53.852Z,19.27
2019-01-19T08:48:24.787Z,17.57
2019-01-19T08:50:55.885Z,16.47
2019-01-19T08:53:26.546Z,16.63
2019-01-19T08:55:57.469Z,13.60
2019-01-19T08:58:28.674Z,10.88
2019-01-19T09:00:59.957Z,11.10
2019-01-19T09:03:30.604Z,19.98
2019-01-19T09:06:01.328Z,13.32
2019-01-19T09:08:32.356Z,12.70
2019-01-19T09:11:03.057Z,12.13
2019-01-19T09:13:33.699Z,15.17
2019-01-19T09:16:26.461Z,10.43
2019-01-19T09:18:57.082Z,18.63
2019-01-19T09:21:30.627Z,12.03
2019-01-19T09:24:02.965Z,8.67
2019-01-19T09:26:33.577Z,9.83
2019-01-19T09:29:04.306Z,13.93
2019-01-19T09:31:35.095Z,11.23
2019-01-19T09:34:05.796Z,12.13
2019-01-19T09:36:36.821Z,13.47
2019-01-19T09:39:11.897Z,12.23
2019-01-19T09:41:42.530Z,11.37
2019-01-19T09:44:13.167Z,10.63
2019-01-19T09:46:43.822Z,16.57
2019-01-19T09:49:14.425Z,6.90
2019-01-19T09:51:45.065Z,9.30
2019-01-19T09:54:16.390Z,9.10
2019-01-19T09:56:47.347Z,11.20
2019-01-19T09:59:18.303Z,10.60
2019-01-19T10:01:49.283Z,12.33
2019-01-19T10:04:19.981Z,12.13
2019-01-19T10:06:50.666Z,11.90
2019-01-19T10:09:21.368Z,15.33
2019-01-19T10:11:52.000Z,12.20
2019-01-19T10:14:22.928Z,10.40
2019-01-19T10:16:53.942Z,11.97
2019-01-19T10:19:24.585Z,10.20
2019-01-19T10:21:55.235Z,11.27
2019-01-19T10:24:25.977Z,12.40
2019-01-19T10:26:56.622Z,11.57
2019-01-19T10:29:28.047Z,9.10
2019-01-19T10:31:59.455Z,12.93
2019-01-19T10:34:30.466Z,12.20
2019-01-19T10:37:01.029Z,11.33
2019-01-19T10:39:31.703Z,12.67
2019-01-19T10:42:03.205Z,10.70
2019-01-19T10:44:34.296Z,13.60
2019-01-19T10:47:04.927Z,11.90
2019-01-19T10:49:35.594Z,12.63
2019-01-19T10:52:06.298Z,10.33
2019-01-19T10:54:37.046Z,12.43
2019-01-19T10:57:08.046Z,11.47
2019-01-19T10:59:38.677Z,12.83
2019-01-19T11:02:09.661Z,11.73
2019-01-19T11:04:40.687Z,12.13
2019-01-19T11:07:11.858Z,17.10
2019-01-19T11:09:42.827Z,14.63
2019-01-19T11:12:13.838Z,13.67
2019-01-19T11:14:44.594Z,12.40
2019-01-19T11:17:15.412Z,11.83
2019-01-19T11:19:46.058Z,10.53
2019-01-19T11:22:16.797Z,15.50
2019-01-19T11:24:47.865Z,12.97
2019-01-19T11:27:18.882Z,16.80
2019-01-19T11:29:49.782Z,15.95
2019-01-19T11:32:24.572Z,15.68
2019-01-19T11:34:55.197Z,15.23
2019-01-19T11:37:26.150Z,10.40
2019-01-19T11:39:56.809Z,11.73
2019-01-19T11:42:27.413Z,15.20
2019-01-19T11:44:58.038Z,12.97
2019-01-19T11:47:29.300Z,17.27
2019-01-19T11:50:00.302Z,16.10
2019-01-19T11:52:30.935Z,15.80
2019-01-19T11:55:02.684Z,17.15
2019-01-19T11:57:33.343Z,18.20
2019-01-19T12:00:04.061Z,15.43
2019-01-19T12:02:37.110Z,10.30
2019-01-19T12:05:07.474Z,13.53
2019-01-19T12:07:38.214Z,11.77
2019-01-19T12:10:12.957Z,13.50
2019-01-19T12:12:43.704Z,16.07
2019-01-19T12:15:14.348Z,19.50
2019-01-19T12:17:45.037Z,13.27
2019-01-19T12:20:28.774Z,16.53
2019-01-19T12:22:59.461Z,13.32
2019-01-19T12:25:30.222Z,16.32
2019-01-19T12:28:01.501Z,18.60
2019-01-19T12:30:33.020Z,18.10
2019-01-19T12:33:03.986Z,17.30
2019-01-19T12:35:34.974Z,14.07
2019-01-19T12:38:05.728Z,14.30
2019-01-19T12:40:36.482Z,11.07
2019-01-19T12:43:14.919Z,11.63
2019-01-19T12:45:58.933Z,14.83
2019-01-19T12:48:30.107Z,13.93
2019-01-19T12:51:01.930Z,15.37
2019-01-19T12:53:32.657Z,13.80
2019-01-19T12:56:03.982Z,16.93
2019-01-19T12:58:34.593Z,14.13
2019-01-19T13:01:05.563Z,14.95
2019-01-19T13:03:36.512Z,16.35
2019-01-19T13:06:36.310Z,18.57
2019-01-19T13:09:15.585Z,16.85
2019-01-19T13:12:34.759Z,21.30
2019-01-19T13:16:10.826Z,13.33
2019-01-19T13:19:45.598Z,16.97
2019-01-19T13:23:06.928Z,13.47
2019-01-19T13:26:50.362Z,24.63
2019-01-19T13:30:23.832Z,10.90
2019-01-19T13:33:31.806Z,17.03
2019-01-19T13:36:39.010Z,18.50
2019-01-19T13:40:13.659Z,13.50
2019-01-19T13:43:54.731Z,19.37
2019-01-19T13:47:39.214Z,13.50
2019-01-19T13:50:50.661Z,15.80
2019-01-19T13:54:05.223Z,15.83
2019-01-19T13:57:27.188Z,15.90
2019-01-19T14:00:59.235Z,15.67
2019-01-19T14:04:36.847Z,17.57
2019-01-19T14:07:39.963Z,19.92
2019-01-19T14:11:01.584Z,17.90
2019-01-19T14:14:41.114Z,15.80
2019-01-19T14:18:01.409Z,17.53
2019-01-19T14:21:30.787Z,17.23
2019-01-19T14:25:14.629Z,20.03
2019-01-19T14:28:33.353Z,18.90
2019-01-19T14:32:23.519Z,18.37
2019-01-19T14:36:00.793Z,23.40
2019-01-19T14:39:46.100Z,20.40
2019-01-19T14:42:34.402Z,22.07
2019-01-19T14:45:49.704Z,26.83
2019-01-19T14:49:43.140Z,26.30
2019-01-19T14:52:45.837Z,24.07
2019-01-19T14:56:06.704Z,19.47
2019-01-19T14:59:30.874Z,21.60
2019-01-19T15:03:00.367Z,24.23
2019-01-19T15:06:54.868Z,26.17
2019-01-19T15:10:09.690Z,21.13
2019-01-19T15:13:24.195Z,25.57
2019-01-19T15:16:39.643Z,26.50
2019-01-19T15:19:55.793Z,31.67
2019-01-19T15:23:30.556Z,26.07
2019-01-19T15:26:43.110Z,25.40
2019-01-19T15:30:15.120Z,29.17
2019-01-19T15:33:43.933Z,26.40
2019-01-19T15:36:47.894Z,26.83
2019-01-19T15:39:49.654Z,31.70
2019-01-19T15:43:24.023Z,31.93
2019-01-19T15:46:54.544Z,30.80
2019-01-19T15:50:24.425Z,28.90
2019-01-19T15:53:16.750Z,30.67
2019-01-19T15:56:45.984Z,29.50
2019-01-19T16:00:05.415Z,34.80
2019-01-19T16:03:18.979Z,31.63
2019-01-19T16:06:53.858Z,40.57
2019-01-19T16:10:07.678Z,39.67
2019-01-19T16:13:36.081Z,36.65
2019-01-19T16:16:54.836Z,35.23
2019-01-19T16:20:28.708Z,43.50
2019-01-19T16:23:48.222Z,34.53
2019-01-19T16:27:28.560Z,36.10
2019-01-19T16:30:57.334Z,39.07
2019-01-19T16:34:24.319Z,41.48
2019-01-19T16:37:44.883Z,34.60
2019-01-19T16:40:39.065Z,38.83
2019-01-19T16:43:30.077Z,41.28
2019-01-19T16:46:49.253Z,36.40
2019-01-19T16:50:06.214Z,40.63
2019-01-19T16:53:29.392Z,42.30
2019-01-19T16:56:31.637Z,40.03
2019-01-19T17:00:08.303Z,40.90
2019-01-19T17:03:30.291Z,45.93
2019-01-19T17:06:48.559Z,45.30
2019-01-19T17:10:00.793Z,46.00
2019-01-19T17:13:30.646Z,43.65
2019-01-19T17:16:54.480Z,44.60
2019-01-19T17:20:24.894Z,50.43
2019-01-19T17:23:49.622Z,39.30
2019-01-19T17:27:07.546Z,44.15
2019-01-19T17:30:33.314Z,46.33
2019-01-19T17:33:39.594Z,51.67
2019-01-19T17:36:31.299Z,42.77
2019-01-19T17:39:40.623Z,43.03
2019-01-19T17:42:27.197Z,46.10
2019-01-19T17:45:29.346Z,42.97
2019-01-19T17:48:33.935Z,44.27
2019-01-19T17:51:46.241Z,51.13
2019-01-19T17:55:04.945Z,52.37
2019-01-19T17:58:31.027Z,46.50
2019-01-19T18:01:45.137Z,49.95
2019-01-19T18:04:50.686Z,57.13
2019-01-19T18:08:07.933Z,52.67
2019-01-19T18:11:26.758Z,48.33
2019-01-19T18:14:39.603Z,54.20
2019-01-19T18:18:11.244Z,54.07
2019-01-19T18:21:39.038Z,49.27
2019-01-19T18:24:55.684Z,44.53
2019-01-19T18:28:17.009Z,52.65
2019-01-19T18:31:40.712Z,51.20
2019-01-19T18:35:01.866Z,51.37
2019-01-19T18:38:37.760Z,50.53
2019-01-19T18:41:34.346Z,51.57
2019-01-19T18:44:45.270Z,55.60
2019-01-19T18:48:05.531Z,51.50
2019-01-19T18:51:28.292Z,50.03
2019-01-19T18:55:01.938Z,49.23
2019-01-19T18:58:33.913Z,44.55
2019-01-19T19:02:12.174Z,58.17
2019-01-19T19:05:19.726Z,54.73
2019-01-19T19:08:32.118Z,62.43
2019-01-19T19:12:05.812Z,58.30
2019-01-19T19:15:43.538Z,59.37
2019-01-19T19:19:08.494Z,57.37
2019-01-19T19:22:48.798Z,63.57
2019-01-19T19:30:23.155Z,73.70
2019-01-19T19:33:38.612Z,71.85
2019-01-19T19:36:45.149Z,57.53
2019-01-19T19:40:32.501Z,70.40
2019-01-19T19:43:36.813Z,68.73
2019-01-19T19:47:02.365Z,63.30
2019-01-19T19:50:22.094Z,67.53
2019-01-19T19:52:53.118Z,66.47
2019-01-19T19:55:22.150Z,60.03
2019-01-19T19:57:53.664Z,64.33
2019-01-19T20:00:25.246Z,69.37
2019-01-19T20:02:56.396Z,68.37
2019-01-19T20:05:27.451Z,60.87
2019-01-19T20:07:58.168Z,65.10
2019-01-19T20:10:28.809Z,56.20
2019-01-19T20:12:59.530Z,69.55
2019-01-19T20:15:30.281Z,60.13
2019-01-19T20:18:01.273Z,67.03
2019-01-19T20:20:32.239Z,61.67
2019-01-19T20:23:03.248Z,62.80
2019-01-19T20:25:34.349Z,63.23
2019-01-19T20:28:05.473Z,63.98
2019-01-19T20:30:37.190Z,60.27
2019-01-19T20:33:08.190Z,55.73
2019-01-19T20:35:39.622Z,62.07
2019-01-19T20:38:10.779Z,68.37
2019-01-19T20:40:42.185Z,64.87
2019-01-19T20:43:13.308Z,80.90
2019-01-19T20:45:44.348Z,75.30
2019-01-19T20:48:15.783Z,66.65
2019-01-19T20:50:46.884Z,71.07
2019-01-19T20:53:17.688Z,72.70
2019-01-19T20:55:48.478Z,65.67
2019-01-19T20:58:19.958Z,75.90
2019-01-19T21:00:50.619Z,74.40
2019-01-19T21:03:22.444Z,87.47
2019-01-19T21:05:53.537Z,81.80
2019-01-19T21:08:24.673Z,85.07
2019-01-19T21:10:56.157Z,85.37
2019-01-19T21:13:27.291Z,92.17
2019-01-19T21:15:58.724Z,91.03
2019-01-19T21:18:32.814Z,78.73
2019-01-19T21:21:04.322Z,98.47
2019-01-19T21:23:35.742Z,95.67
2019-01-19T21:26:06.858Z,99.70
2019-01-19T21:28:38.203Z,96.10
2019-01-19T21:31:09.611Z,104.43
2019-01-19T21:33:41.272Z,90.38
2019-01-19T21:36:12.353Z,99.50
2019-01-19T21:38:43.295Z,112.00
2019-01-19T21:41:14.020Z,106.03
2019-01-19T21:43:45.326Z,105.12
2019-01-19T21:46:16.244Z,102.50
2019-01-19T21:48:47.122Z,106.70
2019-01-19T21:51:18.125Z,104.13
2019-01-19T21:53:49.097Z,108.20
2019-01-19T21:56:19.950Z,109.37
2019-01-19T21:58:50.983Z,118.87
2019-01-19T22:01:21.954Z,115.80
2019-01-19T22:03:53.382Z,108.13
2019-01-19T22:06:24.465Z,131.00
2019-01-19T22:08:55.501Z,121.20
2019-01-19T22:11:27.020Z,116.47
2019-01-19T22:13:58.114Z,146.50
2019-01-19T22:16:29.136Z,141.63
2019-01-19T22:19:00.524Z,163.97
2019-01-19T22:21:31.638Z,154.15
2019-01-19T22:24:03.097Z,144.40
2019-01-19T22:26:35.319Z,145.35
2019-01-19T22:29:06.959Z,136.93
2019-01-19T22:31:37.668Z,142.57
2019-01-19T22:34:08.329Z,157.77
2019-01-19T22:36:39.471Z,164.83
2019-01-19T22:39:10.854Z,167.90
2019-01-19T22:41:42.089Z,156.90
2019-01-19T22:44:13.089Z,152.80
2019-01-19T22:46:44.165Z,145.65
2019-01-19T22:49:15.306Z,157.63
2019-01-19T22:51:47.026Z,164.22
2019-01-19T22:54:18.742Z,137.73
2019-01-19T22:56:49.853Z,161.87
2019-01-19T22:59:20.945Z,179.00
2019-01-19T23:02:02.744Z,191.83
2019-01-19T23:04:35.847Z,208.13
2019-01-19T23:07:07.135Z,196.07
2019-01-19T23:09:38.114Z,194.43
2019-01-19T23:12:08.711Z,206.73
2019-01-19T23:14:39.874Z,205.67
2019-01-19T23:17:10.947Z,210.30
2019-01-19T23:19:42.638Z,213.85
2019-01-19T23:22:14.126Z,198.43
2019-01-19T23:24:46.017Z,196.60
2019-01-19T23:27:17.159Z,186.40
2019-01-19T23:29:48.671Z,169.15
2019-01-19T23:32:20.169Z,146.63
2019-01-19T23:34:51.253Z,171.87
2019-01-19T23:37:22.300Z,169.55
2019-01-19T23:39:53.682Z,177.47
2019-01-19T23:42:25.122Z,172.45
2019-01-19T23:44:56.490Z,181.20
2019-01-19T23:47:27.663Z,176.40
2019-01-19T23:49:58.360Z,184.80
2019-01-19T23:52:29.066Z,172.82
2019-01-19T23:55:00.179Z,175.60
2019-01-19T23:57:31.507Z,164.07
